ADDS METAR Data INFO
IDs: Format: Raw Decoded Include TAF

Data at: 2108 UTC 19 Jul 2018

KHZE 192055Z AUTO 32013G19KT 10SM FEW060 30/15 A2986 RMK AO2
KHZE 192035Z AUTO 33010KT 10SM CLR 30/16 A2986 RMK AO2
KHZE 192015Z AUTO 31007KT 10SM CLR 28/16 A2987 RMK AO2
KHZE 191955Z AUTO 32013KT 10SM CLR 30/16 A2987 RMK AO2
KHZE 191935Z AUTO VRB05G11KT 10SM CLR 30/14 A2988 RMK AO2
KHZE 191915Z AUTO 33007G14KT 10SM CLR 30/14 A2988 RMK AO2
KHZE 191855Z AUTO VRB05G11KT 10SM CLR 29/14 A2988 RMK AO2
KHZE 191835Z AUTO VRB04G12KT 10SM CLR 29/16 A2988 RMK AO2
KHZE 191815Z AUTO 34009KT 10SM CLR 29/17 A2988 RMK AO2
KHZE 191755Z AUTO 32007KT 10SM CLR 28/16 A2988 RMK AO2
KHZE 191735Z AUTO VRB05KT 10SM CLR 28/16 A2987 RMK AO2
KHZE 191715Z AUTO 29007KT 10SM CLR 28/16 A2987 RMK AO2
KHZE 191655Z AUTO VRB04KT 10SM CLR 27/17 A2988 RMK AO2
KHZE 191635Z AUTO 25005KT 10SM CLR 27/18 A2988 RMK AO2
KHZE 191615Z AUTO 00000KT 10SM CLR 25/16 A2987 RMK AO2
KHZE 191555Z AUTO 00000KT 10SM CLR 25/16 A2987 RMK AO2
KHZE 191535Z AUTO 29003KT 10SM CLR 25/17 A2987 RMK AO2
KHZE 191515Z AUTO 00000KT 10SM CLR 24/18 A2987 RMK AO2
KHZE 191455Z AUTO 00000KT 10SM CLR 23/19 A2987 RMK AO2
KHZE 191435Z AUTO 29006KT 10SM CLR 22/18 A2987 RMK AO2
KHZE 191415Z AUTO 00000KT 10SM CLR 21/18 A2986 RMK AO2
KHZE 191355Z AUTO 00000KT 10SM CLR 22/18 A2986 RMK AO2
KHZE 191335Z AUTO 27003KT 10SM CLR 18/18 A2986 RMK AO2
KHZE 191315Z AUTO 00000KT 10SM CLR 18/18 A2986 RMK AO2
KHZE 191255Z AUTO 00000KT 10SM CLR 19/18 A2986 RMK AO2
KHZE 191235Z AUTO 00000KT 10SM CLR 19/18 A2986 RMK AO2
KHZE 191215Z AUTO 00000KT 10SM CLR 18/18 A2987 RMK AO2
KHZE 191155Z AUTO 00000KT 10SM CLR 18/17 A2987 RMK AO2
KHZE 191135Z AUTO 22004KT 10SM CLR 17/17 A2988 RMK AO2
KHZE 191115Z AUTO 00000KT 10SM FEW095 17/17 A2989 RMK AO2
KHZE 191055Z AUTO 23005KT 10SM FEW043 SCT095 18/17 A2989 RMK AO2
KHZE 191035Z AUTO 21008KT 10SM CLR 17/17 A2988 RMK AO2
KHZE 191015Z AUTO 18005KT 10SM FEW047 17/17 A2988 RMK AO2
KHZE 190955Z AUTO 20004KT 10SM FEW037 SCT047 BKN100 17/17 A2988 RMK AO2
KHZE 190935Z AUTO 25005KT 10SM FEW038 SCT044 BKN100 17/17 A2990 RMK AO2
KHZE 190915Z AUTO 21005KT 10SM FEW032 FEW039 BKN100 17/17 A2989 RMK AO2
KHZE 190855Z AUTO 22004KT 10SM FEW032 SCT040 SCT048 17/17 A2989 RMK AO2
KHZE 190835Z AUTO 18005KT 10SM FEW044 FEW050 17/17 A2988 RMK AO2
KHZE 190815Z AUTO 16006KT 10SM CLR 17/17 A2988 RMK AO2
KHZE 190755Z AUTO 00000KT 10SM CLR 18/18 A2988 RMK AO2
KHZE 190735Z AUTO 23004KT 10SM CLR 18/18 A2989 RMK AO2
KHZE 190715Z AUTO 19003KT 10SM CLR 17/17 A2989 RMK AO2
KHZE 190655Z AUTO 21003KT 10SM FEW120 18/18 A2989 RMK AO2
KHZE 190635Z AUTO 25004KT 10SM FEW120 18/18 A2988 RMK AO2
KHZE 190615Z AUTO 25003KT 10SM CLR 18/18 A2987 RMK AO2
KHZE 190555Z AUTO 00000KT 10SM FEW033 FEW040 18/18 A2987 RMK AO2
KHZE 190535Z AUTO 17004KT 10SM FEW031 FEW042 18/18 A2988 RMK AO2
KHZE 190515Z AUTO 16003KT 10SM CLR 19/18 A2989 RMK AO2
KHZE 190455Z AUTO 23004KT 10SM CLR 19/19 A2990 RMK AO2
KHZE 190435Z AUTO 00000KT 10SM FEW032 FEW120 18/18 A2990 RMK AO2
KHZE 190415Z AUTO 26004KT 10SM FEW045 FEW120 19/19 A2991 RMK AO2
KHZE 190355Z AUTO 31005KT 10SM SCT045 SCT120 18/18 A2992 RMK AO2
KHZE 190335Z AUTO 15006KT 10SM CLR 19/18 A2991 RMK AO2
KHZE 190315Z AUTO 00000KT 10SM CLR 19/18 A2991 RMK AO2
KHZE 190255Z AUTO 12003KT 10SM FEW100 19/19 A2991 RMK AO2
KHZE 190235Z AUTO 17004KT 10SM FEW065 FEW075 SCT100 19/19 A2991 RMK AO2
KHZE 190215Z AUTO 00000KT 10SM -DZ FEW049 SCT065 BKN080 20/19 A2990 RMK AO2
KHZE 190155Z AUTO 00000KT 8SM FEW045 SCT060 BKN110 20/19 A2991 RMK AO2
KHZE 190135Z AUTO 22004KT 10SM FEW095 BKN120 20/19 A2991 RMK AO2
KHZE 190115Z AUTO 19003KT 10SM CLR 20/19 A2992 RMK AO2
KHZE 190055Z AUTO 03004KT 10SM SCT100 20/18 A2992 RMK AO2
KHZE 190035Z AUTO VRB03KT 10SM FEW047 SCT100 20/18 A2992 RMK AO2
KHZE 190015Z AUTO 25004KT BKN047 21/18 A2992 RMK AO2
KHZE 182355Z AUTO 26006KT 8SM BKN048 21/19 A2992 RMK AO2
KHZE 182335Z AUTO 00000KT 4SM -RA FEW039 SCT048 SCT055 21/19 A2992 RMK AO2
KHZE 182315Z AUTO 01009KT 5SM -RA FEW038 FEW049 BKN070 20/19 A2991 RMK AO2
KHZE 182255Z AUTO 34011KT 9SM -RA FEW055 FEW060 OVC070 21/17 A2992 RMK AO2
KHZE 182235Z AUTO 00000G16KT 3SM -RA FEW005 SCT029 BKN050 20/15 A2992 RMK AO2
KHZE 182215Z AUTO 16027G34KT 2SM RA FEW005 FEW034 SCT055 22/17 A2994 RMK AO2
KHZE 182155Z AUTO 00000KT 10SM CLR 28/16 A2992 RMK AO2
KHZE 182135Z AUTO 19004KT 10SM CLR 28/16 A2993 RMK AO2
KHZE 182115Z AUTO 18005KT 10SM FEW050 28/17 A2993 RMK AO2
KHZE 182055Z AUTO 14004KT 10SM CLR 28/17 A2993 RMK AO2
KHZE 182035Z AUTO 15006KT 10SM CLR 28/16 A2993 RMK AO2
KHZE 182015Z AUTO VRB03KT 10SM CLR 27/18 A2993 RMK AO2
KHZE 181955Z AUTO 17005KT 10SM FEW049 27/18 A2994 RMK AO2
KHZE 181935Z AUTO 16004KT 10SM CLR 26/18 A2995 RMK AO2
KHZE 181915Z AUTO 21003KT 10SM CLR 25/18 A2996 RMK AO2
KHZE 181855Z AUTO 22003KT 10SM FEW120 25/18 A2996 RMK AO2
KHZE 181835Z AUTO 20005KT 10SM CLR 25/18 A2997 RMK AO2
KHZE 181815Z AUTO 20005KT 10SM CLR 25/18 A2997 RMK AO2
KHZE 181755Z AUTO 26007KT 10SM CLR 25/18 A2997 RMK AO2
KHZE 181735Z AUTO 24007KT 10SM CLR 24/18 A2998 RMK AO2
KHZE 181715Z AUTO 22009KT 10SM FEW085 FEW100 25/18 A2998 RMK AO2
KHZE 181655Z AUTO 20008KT 10SM SCT085 25/18 A2998 RMK AO2
KHZE 181635Z AUTO 24005KT 10SM CLR 25/19 A2998 RMK AO2
KHZE 181615Z AUTO 23008KT 10SM CLR 26/19 A2998 RMK AO2
KHZE 181555Z AUTO 21008KT 10SM CLR 24/19 A2999 RMK AO2
KHZE 181535Z AUTO 22008KT 10SM CLR 24/19 A2998 RMK AO2
KHZE 181515Z AUTO 21005KT 10SM CLR 24/19 A2998 RMK AO2
KHZE 181455Z AUTO 21006KT 10SM CLR 24/19 A2998 RMK AO2
KHZE 181435Z AUTO 22004KT 10SM CLR 24/19 A2998 RMK AO2
KHZE 181415Z AUTO 13004KT 10SM CLR 23/20 A2998 RMK AO2
KHZE 181355Z AUTO 00000KT 10SM FEW085 22/19 A2999 RMK AO2
KHZE 181335Z AUTO 10003KT 10SM FEW080 21/19 A3000 RMK AO2
KHZE 181315Z AUTO 07004KT 10SM FEW080 19/19 A2999 RMK AO2
KHZE 181255Z AUTO 00000KT 9SM CLR 18/18 A2999 RMK AO2
KHZE 181235Z AUTO 00000KT 10SM CLR 18/18 A2999 RMK AO2
KHZE 181215Z AUTO 00000KT 9SM CLR 17/17 A2999 RMK AO2
KHZE 181155Z AUTO 00000KT 7SM CLR 17/17 A2999 RMK AO2
KHZE 181135Z AUTO 00000KT 10SM CLR 17/17 A2999 RMK AO2
KHZE 181115Z AUTO 08004KT 10SM CLR 17/17 A2999 RMK AO2
KHZE 181055Z AUTO 07005KT 10SM CLR 17/17 A2999 RMK AO2
KHZE 181035Z AUTO 07005KT 10SM CLR 17/17 A2999 RMK AO2
KHZE 181015Z AUTO 06005KT 10SM CLR 17/17 A2999 RMK AO2
KHZE 180955Z AUTO 06004KT 10SM CLR 17/17 A3000 RMK AO2
KHZE 180935Z AUTO 05005KT 10SM CLR 18/18 A3000 RMK AO2
KHZE 180915Z AUTO 05004KT 10SM 18/18 A3000 RMK AO2